createdAt,value
2022-07-29T00:02:13.684Z,37.20
2022-07-29T00:04:44.000Z,37.31
2022-07-29T00:07:14.325Z,37.54
2022-07-29T00:09:51.984Z,37.29
2022-07-29T00:12:26.387Z,37.72
2022-07-29T00:14:58.551Z,38.04
2022-07-29T00:17:31.333Z,37.94
2022-07-29T00:20:01.488Z,38.17
2022-07-29T00:22:31.747Z,38.34
2022-07-29T00:25:01.920Z,38.50
2022-07-29T00:27:32.100Z,38.63
2022-07-29T00:30:02.248Z,38.93
2022-07-29T00:32:35.152Z,38.91
2022-07-29T00:35:17.729Z,39.69
2022-07-29T00:37:48.226Z,39.44
2022-07-29T00:40:18.391Z,39.57
2022-07-29T00:42:56.736Z,39.38
2022-07-29T00:45:26.972Z,39.25
2022-07-29T00:47:59.887Z,39.83
2022-07-29T00:50:30.687Z,39.86
2022-07-29T00:53:00.702Z,40.04
2022-07-29T00:55:31.372Z,39.84
2022-07-29T00:58:02.328Z,40.02
2022-07-29T01:00:33.570Z,40.01
2022-07-29T01:03:06.647Z,40.40
2022-07-29T01:05:48.056Z,40.39
2022-07-29T01:08:21.358Z,40.45
2022-07-29T01:10:53.329Z,40.41
2022-07-29T01:13:25.270Z,41.06
2022-07-29T01:16:02.533Z,41.05
2022-07-29T01:18:42.204Z,41.24
2022-07-29T01:21:31.833Z,41.31
2022-07-29T01:24:23.796Z,41.70
2022-07-29T01:27:01.581Z,41.70
2022-07-29T01:30:24.693Z,41.41
2022-07-29T01:33:00.496Z,41.86
2022-07-29T01:35:39.306Z,42.03
2022-07-29T01:38:16.558Z,41.54
2022-07-29T01:40:52.502Z,41.50
2022-07-29T01:43:29.788Z,41.68
2022-07-29T01:46:09.497Z,41.50
2022-07-29T01:48:46.261Z,41.32
2022-07-29T01:51:23.423Z,41.52
2022-07-29T01:54:03.546Z,41.48
2022-07-29T01:56:36.377Z,41.41
2022-07-29T01:59:09.383Z,41.34
2022-07-29T02:01:47.054Z,41.46
2022-07-29T02:04:29.169Z,41.88
2022-07-29T02:07:06.685Z,42.02
2022-07-29T02:09:39.918Z,42.08
2022-07-29T02:12:12.187Z,42.13
2022-07-29T02:14:47.587Z,42.69
2022-07-29T02:17:27.787Z,42.59
2022-07-29T02:20:03.315Z,43.17
2022-07-29T02:22:37.987Z,43.00
2022-07-29T02:25:14.167Z,43.18
2022-07-29T02:27:46.871Z,43.81
2022-07-29T02:30:17.716Z,43.49
2022-07-29T02:32:52.551Z,43.79
2022-07-29T02:35:24.056Z,43.94
2022-07-29T02:38:08.428Z,44.09
2022-07-29T02:40:42.185Z,43.82
2022-07-29T02:43:14.612Z,43.82
2022-07-29T02:45:45.589Z,43.86
2022-07-29T02:48:22.413Z,44.11
2022-07-29T02:51:01.838Z,43.77
2022-07-29T02:53:37.388Z,43.99
2022-07-29T02:56:13.122Z,44.14
2022-07-29T02:58:49.240Z,44.09
2022-07-29T03:01:22.810Z,43.85
2022-07-29T03:03:58.160Z,43.62
2022-07-29T03:06:38.438Z,43.85
2022-07-29T03:09:13.599Z,44.15
2022-07-29T03:11:49.334Z,44.41
2022-07-29T03:14:24.046Z,44.96
2022-07-29T03:16:55.393Z,45.32
2022-07-29T03:19:28.700Z,45.33
2022-07-29T03:22:00.905Z,44.99
2022-07-29T03:24:37.101Z,44.79
2022-07-29T03:27:08.625Z,45.19
2022-07-29T03:29:38.837Z,45.07
2022-07-29T03:32:10.919Z,45.21
2022-07-29T03:34:43.740Z,46.07
2022-07-29T03:37:13.976Z,45.63
2022-07-29T03:39:47.260Z,45.91
2022-07-29T03:42:20.440Z,45.76
2022-07-29T03:44:52.979Z,46.06
2022-07-29T03:47:49.820Z,46.65
2022-07-29T03:50:22.015Z,45.98
2022-07-29T03:52:53.220Z,46.00
2022-07-29T03:55:23.987Z,46.28
2022-07-29T03:57:54.677Z,46.52
2022-07-29T04:00:25.796Z,46.69
2022-07-29T04:02:55.648Z,46.92
2022-07-29T04:05:28.477Z,47.11
2022-07-29T04:07:58.799Z,46.52
2022-07-29T04:10:31.866Z,46.42
2022-07-29T04:13:03.824Z,46.54
2022-07-29T04:15:34.201Z,46.91
2022-07-29T04:18:04.583Z,46.88
2022-07-29T04:20:37.600Z,46.81
2022-07-29T04:23:07.983Z,47.34
2022-07-29T04:25:42.327Z,47.05
2022-07-29T04:28:13.742Z,47.19
2022-07-29T04:30:44.635Z,47.03
2022-07-29T04:33:15.110Z,46.94
2022-07-29T04:35:50.436Z,47.31
2022-07-29T04:38:23.259Z,47.14
2022-07-29T04:40:53.195Z,46.99
2022-07-29T04:43:24.752Z,47.17
2022-07-29T04:45:55.221Z,47.21
2022-07-29T04:48:28.702Z,47.81
2022-07-29T04:51:01.932Z,47.55
2022-07-29T04:53:32.240Z,47.23
2022-07-29T04:56:02.473Z,47.05
2022-07-29T04:58:32.655Z,47.12
2022-07-29T05:01:02.841Z,46.83
2022-07-29T05:03:33.121Z,47.08
2022-07-29T05:06:05.989Z,46.93
2022-07-29T05:08:36.205Z,46.65
2022-07-29T05:11:11.535Z,47.03
2022-07-29T05:13:46.154Z,46.93
2022-07-29T05:16:17.618Z,47.79
2022-07-29T05:18:47.880Z,47.81
2022-07-29T05:21:21.029Z,47.56
2022-07-29T05:23:51.427Z,47.93
2022-07-29T05:26:21.782Z,47.72
2022-07-29T05:28:52.194Z,47.89
2022-07-29T05:31:22.407Z,47.77
2022-07-29T05:33:52.590Z,48.52
2022-07-29T05:36:25.337Z,48.53
2022-07-29T05:38:55.843Z,48.43
2022-07-29T05:41:25.991Z,48.30
2022-07-29T05:43:56.078Z,47.49
2022-07-29T05:46:26.334Z,47.32
2022-07-29T05:48:57.437Z,47.24
2022-07-29T05:51:30.970Z,47.13
2022-07-29T05:54:01.171Z,47.27
2022-07-29T05:56:31.571Z,47.29
2022-07-29T05:59:02.194Z,47.19
2022-07-29T06:01:32.641Z,47.25
2022-07-29T06:04:03.130Z,47.01
2022-07-29T06:06:35.949Z,46.39
2022-07-29T06:09:12.470Z,45.81
2022-07-29T06:11:43.656Z,45.70
2022-07-29T06:14:14.208Z,44.87
2022-07-29T06:16:45.420Z,44.53
2022-07-29T06:19:15.730Z,44.48
2022-07-29T06:21:50.310Z,45.52
2022-07-29T06:24:20.810Z,46.57
2022-07-29T06:26:51.149Z,46.35
2022-07-29T06:29:21.326Z,46.18
2022-07-29T06:31:51.534Z,46.67
2022-07-29T06:34:21.743Z,46.84
2022-07-29T06:36:55.224Z,46.72
2022-07-29T06:39:26.668Z,46.60
2022-07-29T06:41:56.910Z,46.74
2022-07-29T06:44:28.650Z,46.60
2022-07-29T06:46:58.838Z,46.71
2022-07-29T06:49:29.028Z,46.65
2022-07-29T06:52:01.884Z,46.49
2022-07-29T06:54:32.697Z,46.57
2022-07-29T06:57:03.006Z,46.37
2022-07-29T06:59:35.787Z,45.58
2022-07-29T07:02:06.417Z,44.95
2022-07-29T07:04:36.762Z,44.58
2022-07-29T07:07:09.713Z,43.70
2022-07-29T07:09:40.854Z,43.60
2022-07-29T07:12:11.997Z,43.26
2022-07-29T07:14:43.649Z,42.61
2022-07-29T07:17:13.874Z,41.59
2022-07-29T07:19:44.127Z,42.10
2022-07-29T07:22:17.080Z,41.88
2022-07-29T07:24:47.241Z,42.00
2022-07-29T07:27:17.432Z,42.11
2022-07-29T07:29:48.055Z,41.26
2022-07-29T07:32:18.488Z,41.44
2022-07-29T07:34:48.466Z,40.79
2022-07-29T07:37:21.687Z,41.18
2022-07-29T07:39:51.856Z,41.08
2022-07-29T07:42:22.106Z,41.02
2022-07-29T07:45:12.517Z,40.84
2022-07-29T07:47:43.265Z,40.92
2022-07-29T07:50:19.002Z,40.13
2022-07-29T07:52:58.856Z,40.41
2022-07-29T07:55:53.581Z,39.30
2022-07-29T07:58:20.733Z,40.26
2022-07-29T08:00:51.009Z,40.57
2022-07-29T08:03:20.966Z,40.67
2022-07-29T08:05:52.143Z,40.01
2022-07-29T08:08:24.927Z,39.97
2022-07-29T08:10:57.946Z,40.13
2022-07-29T08:13:31.606Z,39.57
2022-07-29T08:16:03.017Z,39.12
2022-07-29T08:18:35.266Z,39.21
2022-07-29T08:21:05.499Z,39.23
2022-07-29T08:23:46.115Z,39.33
2022-07-29T08:26:19.632Z,39.12
2022-07-29T08:28:51.931Z,39.63
2022-07-29T08:31:22.156Z,39.35
2022-07-29T08:33:52.075Z,38.21
2022-07-29T08:36:22.334Z,36.31
2022-07-29T08:38:54.884Z,34.96
2022-07-29T08:41:25.640Z,32.92
2022-07-29T08:43:56.264Z,32.51
2022-07-29T08:46:27.008Z,31.09
2022-07-29T08:48:57.392Z,29.50
2022-07-29T08:51:31.580Z,28.63
2022-07-29T08:54:05.364Z,27.79
2022-07-29T08:56:36.123Z,26.59
2022-07-29T08:59:08.843Z,25.78
2022-07-29T09:01:45.258Z,25.44
2022-07-29T09:04:17.151Z,25.21
2022-07-29T09:06:51.667Z,25.41
2022-07-29T09:09:24.537Z,26.18
2022-07-29T09:11:55.469Z,27.33
2022-07-29T09:14:25.841Z,26.57
2022-07-29T09:16:58.635Z,26.45
2022-07-29T09:19:35.355Z,26.62
2022-07-29T09:22:08.223Z,27.32
2022-07-29T09:24:47.107Z,25.73
2022-07-29T09:27:27.562Z,24.83
2022-07-29T09:30:02.810Z,23.47
2022-07-29T09:32:34.230Z,24.51
2022-07-29T09:35:21.718Z,24.54
2022-07-29T09:37:52.478Z,24.77
2022-07-29T09:40:29.363Z,24.74
2022-07-29T09:43:00.070Z,24.69
2022-07-29T09:45:33.355Z,24.09
2022-07-29T09:48:04.641Z,23.08
2022-07-29T09:50:43.222Z,23.55
2022-07-29T09:53:14.128Z,23.24
2022-07-29T09:55:54.016Z,22.68
2022-07-29T09:58:25.922Z,22.53
2022-07-29T10:01:00.675Z,22.42
2022-07-29T10:03:31.047Z,21.67
2022-07-29T10:06:14.651Z,21.54
2022-07-29T10:08:45.994Z,21.78
2022-07-29T10:11:21.270Z,21.08
2022-07-29T10:13:52.613Z,20.87
2022-07-29T10:16:22.825Z,20.94
2022-07-29T10:18:53.366Z,21.29
2022-07-29T10:21:35.773Z,21.18
2022-07-29T10:24:14.823Z,21.16
2022-07-29T10:26:49.142Z,20.74
2022-07-29T10:29:19.375Z,20.82
2022-07-29T10:32:04.016Z,20.44
2022-07-29T10:34:56.989Z,20.31
2022-07-29T10:37:35.439Z,20.71
2022-07-29T10:40:34.004Z,20.78
2022-07-29T10:43:22.264Z,20.61
2022-07-29T10:45:59.873Z,21.42
2022-07-29T10:48:30.789Z,22.37
2022-07-29T10:51:04.165Z,23.06
2022-07-29T10:53:54.178Z,23.55
2022-07-29T10:56:33.497Z,23.96
2022-07-29T10:59:36.315Z,23.22
2022-07-29T11:05:40.093Z,22.56
2022-07-29T11:08:28.393Z,22.55
2022-07-29T11:11:37.882Z,23.17
2022-07-29T11:14:10.473Z,21.83
2022-07-29T11:17:10.370Z,21.16
2022-07-29T11:19:50.987Z,21.76
2022-07-29T11:22:37.157Z,21.38
2022-07-29T11:28:23.108Z,20.70
2022-07-29T11:30:58.384Z,20.75
2022-07-29T11:33:56.403Z,21.33
2022-07-29T11:36:28.314Z,22.24
2022-07-29T11:39:37.059Z,22.87
2022-07-29T11:42:44.403Z,21.81
2022-07-29T11:45:44.187Z,21.99
2022-07-29T11:48:28.482Z,22.26
2022-07-29T11:51:03.600Z,22.12
2022-07-29T11:53:38.101Z,23.34
2022-07-29T11:56:12.264Z,24.08
2022-07-29T11:58:47.201Z,24.57
2022-07-29T12:01:17.995Z,25.05
2022-07-29T12:03:48.381Z,24.72
2022-07-29T12:06:21.276Z,24.67
2022-07-29T12:08:51.619Z,23.50
2022-07-29T12:11:23.814Z,23.51
2022-07-29T12:13:54.864Z,22.44
2022-07-29T12:16:29.409Z,21.02
2022-07-29T12:19:04.789Z,19.57
2022-07-29T12:21:53.685Z,18.37
2022-07-29T12:24:27.662Z,18.60
2022-07-29T12:27:00.801Z,19.45
2022-07-29T12:29:35.476Z,20.04
2022-07-29T12:32:14.209Z,20.51
2022-07-29T12:34:45.593Z,21.27
2022-07-29T12:37:18.704Z,20.85
2022-07-29T12:39:49.006Z,21.36
2022-07-29T12:42:20.117Z,19.32
2022-07-29T12:44:55.096Z,18.31
2022-07-29T12:47:25.511Z,17.90
2022-07-29T12:50:13.505Z,17.66
2022-07-29T12:52:46.330Z,17.81
2022-07-29T12:55:16.602Z,17.68
2022-07-29T12:57:51.770Z,17.33
2022-07-29T13:00:27.587Z,16.84
2022-07-29T13:03:00.416Z,16.59
2022-07-29T13:05:49.178Z,16.84
2022-07-29T13:08:23.317Z,17.29
2022-07-29T13:10:53.681Z,16.56
2022-07-29T13:13:29.742Z,16.15
2022-07-29T13:16:11.695Z,15.44
2022-07-29T13:18:42.412Z,15.42
2022-07-29T13:21:19.072Z,17.15
2022-07-29T13:23:51.995Z,18.41
2022-07-29T13:26:22.285Z,19.89
2022-07-29T13:28:52.544Z,20.40
2022-07-29T13:31:23.142Z,21.39
2022-07-29T13:33:53.381Z,22.23
2022-07-29T13:36:24.795Z,22.71
2022-07-29T13:38:57.650Z,23.06
2022-07-29T13:41:28.300Z,23.94
2022-07-29T13:43:58.875Z,24.15
2022-07-29T13:46:29.101Z,24.67
2022-07-29T13:48:59.377Z,24.93
2022-07-29T13:51:29.575Z,25.68
2022-07-29T13:54:02.459Z,25.92
2022-07-29T13:56:32.882Z,26.19
2022-07-29T13:59:03.140Z,26.78
2022-07-29T14:01:34.149Z,27.65
2022-07-29T14:04:04.369Z,27.98
2022-07-29T14:06:34.528Z,28.37
2022-07-29T14:09:09.699Z,28.42
2022-07-29T14:11:40.825Z,28.68
2022-07-29T14:14:11.687Z,29.14
2022-07-29T14:16:47.616Z,30.57
2022-07-29T14:19:20.693Z,30.37
2022-07-29T14:21:51.218Z,30.34
2022-07-29T14:24:24.330Z,30.42
2022-07-29T14:26:56.294Z,30.83
2022-07-29T14:29:37.582Z,29.69
2022-07-29T14:32:10.108Z,29.90
2022-07-29T14:34:41.208Z,30.79
2022-07-29T14:37:15.813Z,32.64
2022-07-29T14:39:49.028Z,32.59
2022-07-29T14:42:19.241Z,33.01
2022-07-29T14:44:50.397Z,34.24
2022-07-29T14:47:20.668Z,35.82
2022-07-29T14:49:50.792Z,35.07
2022-07-29T14:52:20.748Z,36.21
2022-07-29T14:54:53.565Z,33.38
2022-07-29T14:57:23.915Z,32.30
2022-07-29T14:59:55.026Z,32.22
2022-07-29T15:02:39.991Z,31.89
2022-07-29T15:05:15.346Z,38.84
2022-07-29T15:07:45.691Z,42.16
2022-07-29T15:10:18.564Z,45.12
2022-07-29T15:12:49.121Z,47.46
2022-07-29T15:15:19.006Z,49.57
2022-07-29T15:17:49.236Z,50.59
2022-07-29T15:20:19.864Z,52.09
2022-07-29T15:22:50.076Z,53.44
2022-07-29T15:25:23.002Z,52.95
2022-07-29T15:27:54.799Z,52.85
2022-07-29T15:30:33.565Z,52.84
2022-07-29T15:33:05.714Z,53.64
2022-07-29T15:35:40.026Z,53.72
2022-07-29T15:38:11.160Z,52.15
2022-07-29T15:40:45.489Z,53.13
2022-07-29T15:43:15.645Z,52.92
2022-07-29T15:46:09.147Z,53.14
2022-07-29T15:48:43.030Z,51.72
2022-07-29T15:51:13.360Z,50.39
2022-07-29T15:57:10.887Z,51.04
2022-07-29T15:59:41.340Z,50.94
2022-07-29T16:02:11.355Z,51.45
2022-07-29T16:04:41.567Z,50.39
2022-07-29T16:07:11.728Z,49.89
2022-07-29T16:09:41.925Z,49.51
2022-07-29T16:12:15.630Z,48.90
2022-07-29T16:14:46.160Z,48.87
2022-07-29T16:17:16.500Z,48.83
2022-07-29T16:19:46.908Z,48.08
2022-07-29T16:22:16.873Z,47.98
2022-07-29T16:24:47.109Z,46.75
2022-07-29T16:27:24.846Z,45.75
2022-07-29T16:29:55.766Z,45.57
2022-07-29T16:32:25.975Z,45.96
2022-07-29T16:34:56.164Z,45.82
2022-07-29T16:37:28.834Z,46.04
2022-07-29T16:39:59.136Z,46.56
2022-07-29T16:42:45.938Z,45.95
2022-07-29T16:45:17.994Z,45.49
2022-07-29T16:47:51.604Z,45.03
2022-07-29T16:50:22.978Z,44.61
2022-07-29T16:52:53.138Z,45.03
2022-07-29T16:55:23.660Z,45.64
2022-07-29T16:57:56.577Z,45.69
2022-07-29T17:00:26.980Z,45.80
2022-07-29T17:02:56.935Z,46.47
2022-07-29T17:05:27.382Z,48.18
2022-07-29T17:07:58.573Z,48.86
2022-07-29T17:10:30.379Z,49.13
2022-07-29T17:13:03.249Z,48.91
2022-07-29T17:15:36.383Z,48.26
2022-07-29T17:18:12.347Z,48.38
2022-07-29T17:20:45.648Z,48.18
2022-07-29T17:23:15.954Z,48.00
2022-07-29T17:25:46.155Z,47.78
2022-07-29T17:28:18.963Z,47.35
2022-07-29T17:30:49.166Z,47.04
2022-07-29T17:33:19.334Z,48.35
2022-07-29T17:36:01.968Z,48.99
2022-07-29T17:38:32.137Z,49.52
2022-07-29T17:41:02.398Z,49.46
2022-07-29T17:43:40.556Z,49.42
2022-07-29T17:46:11.546Z,50.03
2022-07-29T17:48:41.802Z,50.44
2022-07-29T17:51:12.140Z,50.34
2022-07-29T17:53:42.067Z,50.11
2022-07-29T17:56:12.213Z,49.09
2022-07-29T17:58:47.450Z,49.55
2022-07-29T18:01:18.041Z,49.52
2022-07-29T18:03:48.359Z,49.73
2022-07-29T18:06:18.645Z,50.20
2022-07-29T18:08:49.106Z,50.23
2022-07-29T18:11:19.071Z,50.19
2022-07-29T18:13:52.280Z,49.71
2022-07-29T18:19:44.443Z,49.73
2022-07-29T18:22:15.224Z,49.49
2022-07-29T18:24:45.492Z,48.93
2022-07-29T18:27:15.661Z,49.46
2022-07-29T18:29:51.161Z,49.43
2022-07-29T18:32:28.726Z,50.04
2022-07-29T18:35:02.726Z,49.79
2022-07-29T18:38:00.851Z,49.24
2022-07-29T18:40:25.838Z,49.34
2022-07-29T18:42:56.200Z,49.49
2022-07-29T18:45:29.122Z,49.19
2022-07-29T18:47:59.582Z,49.14
2022-07-29T18:50:29.957Z,49.85
2022-07-29T18:53:03.402Z,49.77
2022-07-29T18:55:33.657Z,50.25
2022-07-29T18:58:03.898Z,50.42
2022-07-29T19:00:36.689Z,50.31
2022-07-29T19:03:07.174Z,50.68
2022-07-29T19:05:37.702Z,50.78
2022-07-29T19:08:08.108Z,51.42
2022-07-29T19:10:38.303Z,51.05
2022-07-29T19:13:08.703Z,51.03
2022-07-29T19:15:41.591Z,51.43
2022-07-29T19:18:13.326Z,51.11
2022-07-29T19:20:43.782Z,51.19
2022-07-29T19:23:13.747Z,52.07
2022-07-29T19:25:53.933Z,51.29
2022-07-29T19:28:24.487Z,50.72
2022-07-29T19:30:57.295Z,50.71
2022-07-29T19:33:27.502Z,51.09
2022-07-29T19:36:05.548Z,51.24
2022-07-29T19:38:40.683Z,51.20
2022-07-29T19:41:11.012Z,51.36
2022-07-29T19:43:50.965Z,51.53
2022-07-29T19:46:30.791Z,51.27
2022-07-29T19:49:01.446Z,51.93
2022-07-29T19:51:31.808Z,51.98
2022-07-29T19:54:01.991Z,51.55
2022-07-29T19:56:32.186Z,52.17
2022-07-29T19:59:02.874Z,53.53
2022-07-29T20:01:40.285Z,53.74
2022-07-29T20:04:10.553Z,54.63
2022-07-29T20:06:41.017Z,54.84
2022-07-29T20:09:16.903Z,55.04
2022-07-29T20:11:50.735Z,55.55
2022-07-29T20:14:21.107Z,56.12
2022-07-29T20:16:54.530Z,56.84
2022-07-29T20:19:24.844Z,56.75
2022-07-29T20:21:55.057Z,56.73
2022-07-29T20:24:25.555Z,57.06
2022-07-29T20:26:55.488Z,56.76
2022-07-29T20:29:25.950Z,56.06
2022-07-29T20:31:58.562Z,56.57
2022-07-29T20:34:28.876Z,56.33
2022-07-29T20:37:00.441Z,56.46
2022-07-29T20:39:31.223Z,56.83
2022-07-29T20:42:01.131Z,56.50
2022-07-29T20:44:31.293Z,56.69
2022-07-29T20:47:04.215Z,57.26
2022-07-29T20:49:36.334Z,57.47
2022-07-29T20:52:06.742Z,58.47
2022-07-29T20:54:37.054Z,59.21
2022-07-29T20:57:07.628Z,59.74
2022-07-29T20:59:38.607Z,61.00
2022-07-29T21:02:13.770Z,62.01
2022-07-29T21:04:44.122Z,62.88
2022-07-29T21:07:14.319Z,64.44
2022-07-29T21:09:44.627Z,63.49
2022-07-29T21:12:14.836Z,64.18
2022-07-29T21:14:51.901Z,65.09
2022-07-29T21:17:24.785Z,65.64
2022-07-29T21:19:55.492Z,66.42
2022-07-29T21:22:25.761Z,65.56
2022-07-29T21:24:55.921Z,67.09
2022-07-29T21:27:38.657Z,67.19
2022-07-29T21:30:11.692Z,67.43
2022-07-29T21:32:44.708Z,68.08
2022-07-29T21:35:31.391Z,68.18
2022-07-29T21:38:05.248Z,68.44
2022-07-29T21:40:35.608Z,67.85
2022-07-29T21:43:06.144Z,68.19
2022-07-29T21:45:36.018Z,68.91
2022-07-29T21:48:10.403Z,69.13
2022-07-29T21:50:40.722Z,69.62
2022-07-29T21:53:11.127Z,70.77
2022-07-29T21:55:44.730Z,70.69
2022-07-29T21:58:15.558Z,71.38
2022-07-29T22:00:46.865Z,71.54
2022-07-29T22:03:20.264Z,71.19
2022-07-29T22:05:50.454Z,71.73
2022-07-29T22:08:23.466Z,71.89
2022-07-29T22:10:53.717Z,72.35
2022-07-29T22:13:23.946Z,72.83
2022-07-29T22:15:54.091Z,73.42
2022-07-29T22:18:26.930Z,74.44
2022-07-29T22:20:57.150Z,75.17
2022-07-29T22:23:27.327Z,75.14
2022-07-29T22:25:57.545Z,75.97
2022-07-29T22:28:27.851Z,75.59
2022-07-29T22:30:58.351Z,77.50
2022-07-29T22:33:31.589Z,78.11
2022-07-29T22:36:01.771Z,78.25
2022-07-29T22:38:31.946Z,77.90
2022-07-29T22:41:03.366Z,78.84
2022-07-29T22:43:33.735Z,79.36
2022-07-29T22:46:04.179Z,80.23
2022-07-29T22:48:37.166Z,79.84
2022-07-29T22:51:07.959Z,79.87
2022-07-29T22:53:39.273Z,79.66
2022-07-29T22:56:09.500Z,79.12
2022-07-29T22:58:39.695Z,79.27
2022-07-29T23:01:10.339Z,79.50
2022-07-29T23:03:51.101Z,79.37
2022-07-29T23:06:22.084Z,78.93
2022-07-29T23:08:52.364Z,80.22
2022-07-29T23:11:22.526Z,80.56
2022-07-29T23:13:52.729Z,80.01
2022-07-29T23:16:26.631Z,79.32
2022-07-29T23:18:59.914Z,79.91
2022-07-29T23:21:30.168Z,80.49
2022-07-29T23:24:00.289Z,80.33
2022-07-29T23:26:31.884Z,79.94
2022-07-29T23:29:02.165Z,80.29
2022-07-29T23:31:32.347Z,79.98
2022-07-29T23:34:05.112Z,80.39
2022-07-29T23:36:35.480Z,81.12
2022-07-29T23:39:06.175Z,82.18
2022-07-29T23:41:36.411Z,82.03
2022-07-29T23:44:07.333Z,83.32
2022-07-29T23:46:37.631Z,83.12
2022-07-29T23:49:10.587Z,83.25
2022-07-29T23:51:40.914Z,83.18
2022-07-29T23:54:11.226Z,83.07
2022-07-29T23:56:41.533Z,82.41
2022-07-29T23:59:11.765Z,82.72
